sensor_id;sensor_type;location;lat;lon;timestamp;temperature;humidity
42095;DHT22;27753;55.724;37.612;2022-12-18T00:01:27;-2.80;99.90
42095;DHT22;27753;55.724;37.612;2022-12-18T00:03:54;-2.80;99.90
42095;DHT22;27753;55.724;37.612;2022-12-18T00:06:21;-2.80;99.90
42095;DHT22;27753;55.724;37.612;2022-12-18T00:08:48;-2.80;99.90
42095;DHT22;27753;55.724;37.612;2022-12-18T00:11:19;-2.90;99.90
42095;DHT22;27753;55.724;37.612;2022-12-18T00:13:46;-2.90;99.90
42095;DHT22;27753;55.724;37.612;2022-12-18T00:16:18;-2.90;99.90
42095;DHT22;27753;55.724;37.612;2022-12-18T00:18:46;-2.90;99.90
42095;DHT22;27753;55.724;37.612;2022-12-18T00:21:13;-2.90;99.90
42095;DHT22;27753;55.724;37.612;2022-12-18T00:23:41;-2.80;99.90
42095;DHT22;27753;55.724;37.612;2022-12-18T00:26:22;-2.90;99.90
42095;DHT22;27753;55.724;37.612;2022-12-18T00:28:49;-2.90;99.90
42095;DHT22;27753;55.724;37.612;2022-12-18T00:31:20;-2.90;99.90
42095;DHT22;27753;55.724;37.612;2022-12-18T00:33:46;-2.90;99.90
42095;DHT22;27753;55.724;37.612;2022-12-18T00:36:14;-3.00;99.90
42095;DHT22;27753;55.724;37.612;2022-12-18T00:38:41;-3.00;99.90
42095;DHT22;27753;55.724;37.612;2022-12-18T00:41:08;-3.00;99.90
42095;DHT22;27753;55.724;37.612;2022-12-18T00:43:35;-3.00;99.90
42095;DHT22;27753;55.724;37.612;2022-12-18T00:46:01;-3.00;99.90
42095;DHT22;27753;55.724;37.612;2022-12-18T00:48:27;-3.00;99.90
42095;DHT22;27753;55.724;37.612;2022-12-18T00:50:53;-3.00;99.90
42095;DHT22;27753;55.724;37.612;2022-12-18T00:53:19;-3.10;99.90
42095;DHT22;27753;55.724;37.612;2022-12-18T00:55:46;-3.10;99.90
42095;DHT22;27753;55.724;37.612;2022-12-18T00:58:13;-3.10;99.90
42095;DHT22;27753;55.724;37.612;2022-12-18T01:00:39;-3.10;99.90
42095;DHT22;27753;55.724;37.612;2022-12-18T01:03:05;-3.10;99.90
42095;DHT22;27753;55.724;37.612;2022-12-18T01:05:32;-3.10;99.90
42095;DHT22;27753;55.724;37.612;2022-12-18T01:07:58;-3.10;99.90
42095;DHT22;27753;55.724;37.612;2022-12-18T01:10:26;-3.20;99.90
42095;DHT22;27753;55.724;37.612;2022-12-18T01:12:52;-3.20;99.90
42095;DHT22;27753;55.724;37.612;2022-12-18T01:15:18;-3.20;99.90
42095;DHT22;27753;55.724;37.612;2022-12-18T01:17:44;-3.30;99.90
42095;DHT22;27753;55.724;37.612;2022-12-18T01:20:11;-3.30;99.90
42095;DHT22;27753;55.724;37.612;2022-12-18T01:22:37;-3.30;99.90
42095;DHT22;27753;55.724;37.612;2022-12-18T01:25:04;-3.30;99.90
42095;DHT22;27753;55.724;37.612;2022-12-18T01:27:32;-3.30;99.90
42095;DHT22;27753;55.724;37.612;2022-12-18T01:29:58;-3.30;99.90
42095;DHT22;27753;55.724;37.612;2022-12-18T01:32:24;-3.30;99.90
42095;DHT22;27753;55.724;37.612;2022-12-18T01:34:50;-3.30;99.90
42095;DHT22;27753;55.724;37.612;2022-12-18T01:37:16;-3.30;99.90
42095;DHT22;27753;55.724;37.612;2022-12-18T01:39:42;-3.20;99.90
42095;DHT22;27753;55.724;37.612;2022-12-18T01:42:15;-3.20;99.90
42095;DHT22;27753;55.724;37.612;2022-12-18T01:45:01;-3.30;99.90
42095;DHT22;27753;55.724;37.612;2022-12-18T01:47:53;-3.20;99.90
42095;DHT22;27753;55.724;37.612;2022-12-18T01:50:25;-3.20;99.90
42095;DHT22;27753;55.724;37.612;2022-12-18T01:53:07;-3.20;99.90
42095;DHT22;27753;55.724;37.612;2022-12-18T01:55:42;-3.20;99.90
42095;DHT22;27753;55.724;37.612;2022-12-18T01:58:09;-3.20;99.90
42095;DHT22;27753;55.724;37.612;2022-12-18T02:00:35;-3.20;99.90
42095;DHT22;27753;55.724;37.612;2022-12-18T02:03:01;-3.20;99.90
42095;DHT22;27753;55.724;37.612;2022-12-18T02:08:29;-3.10;99.90
42095;DHT22;27753;55.724;37.612;2022-12-18T02:11:10;-3.10;99.90
42095;DHT22;27753;55.724;37.612;2022-12-18T02:27:40;-3.10;99.90
42095;DHT22;27753;55.724;37.612;2022-12-18T02:30:10;-3.10;99.90
42095;DHT22;27753;55.724;37.612;2022-12-18T02:32:40;-3.00;99.90
42095;DHT22;27753;55.724;37.612;2022-12-18T02:35:11;-3.00;99.90
42095;DHT22;27753;55.724;37.612;2022-12-18T02:37:39;-3.00;99.90
42095;DHT22;27753;55.724;37.612;2022-12-18T02:40:06;-3.10;99.90
42095;DHT22;27753;55.724;37.612;2022-12-18T02:42:33;-3.00;99.90
42095;DHT22;27753;55.724;37.612;2022-12-18T02:44:59;-3.00;99.90
42095;DHT22;27753;55.724;37.612;2022-12-18T02:47:30;-3.00;99.90
42095;DHT22;27753;55.724;37.612;2022-12-18T02:50:02;-3.00;99.90
42095;DHT22;27753;55.724;37.612;2022-12-18T02:52:42;-3.00;99.90
42095;DHT22;27753;55.724;37.612;2022-12-18T02:57:50;-3.10;99.90
42095;DHT22;27753;55.724;37.612;2022-12-18T03:00:24;-3.10;99.90
42095;DHT22;27753;55.724;37.612;2022-12-18T03:05:45;-3.00;99.90
42095;DHT22;27753;55.724;37.612;2022-12-18T03:08:18;-3.10;99.90
42095;DHT22;27753;55.724;37.612;2022-12-18T03:11:09;-3.10;99.90
42095;DHT22;27753;55.724;37.612;2022-12-18T03:16:10;-3.10;99.90
42095;DHT22;27753;55.724;37.612;2022-12-18T03:18:45;-3.10;99.90
42095;DHT22;27753;55.724;37.612;2022-12-18T03:21:13;-3.10;99.90
42095;DHT22;27753;55.724;37.612;2022-12-18T03:23:44;-3.10;99.90
42095;DHT22;27753;55.724;37.612;2022-12-18T03:26:16;-3.10;99.90
42095;DHT22;27753;55.724;37.612;2022-12-18T03:28:56;-3.10;99.90
42095;DHT22;27753;55.724;37.612;2022-12-18T03:31:26;-3.10;99.90
42095;DHT22;27753;55.724;37.612;2022-12-18T03:33:57;-3.20;99.90
42095;DHT22;27753;55.724;37.612;2022-12-18T03:36:24;-3.10;99.90
42095;DHT22;27753;55.724;37.612;2022-12-18T03:38:51;-3.10;99.90
42095;DHT22;27753;55.724;37.612;2022-12-18T03:46:56;-3.20;99.90
42095;DHT22;27753;55.724;37.612;2022-12-18T03:49:57;-3.30;99.90
42095;DHT22;27753;55.724;37.612;2022-12-18T03:55:17;-3.30;99.90
42095;DHT22;27753;55.724;37.612;2022-12-18T03:57:44;-3.30;99.90
42095;DHT22;27753;55.724;37.612;2022-12-18T04:00:13;-3.30;99.90
42095;DHT22;27753;55.724;37.612;2022-12-18T04:02:43;-3.20;99.90
42095;DHT22;27753;55.724;37.612;2022-12-18T04:05:10;-3.20;99.90
42095;DHT22;27753;55.724;37.612;2022-12-18T04:07:38;-3.20;99.90
42095;DHT22;27753;55.724;37.612;2022-12-18T04:10:07;-3.30;99.90
42095;DHT22;27753;55.724;37.612;2022-12-18T04:12:33;-3.20;99.90
42095;DHT22;27753;55.724;37.612;2022-12-18T04:14:59;-3.20;99.90
42095;DHT22;27753;55.724;37.612;2022-12-18T04:17:25;-3.20;99.90
42095;DHT22;27753;55.724;37.612;2022-12-18T04:19:51;-3.20;99.90
42095;DHT22;27753;55.724;37.612;2022-12-18T04:22:17;-3.20;99.90
42095;DHT22;27753;55.724;37.612;2022-12-18T04:24:43;-3.20;99.90
42095;DHT22;27753;55.724;37.612;2022-12-18T04:27:09;-3.30;99.90
42095;DHT22;27753;55.724;37.612;2022-12-18T04:29:34;-3.30;99.90
42095;DHT22;27753;55.724;37.612;2022-12-18T04:32:00;-3.30;99.90
42095;DHT22;27753;55.724;37.612;2022-12-18T04:34:29;-3.30;99.90
42095;DHT22;27753;55.724;37.612;2022-12-18T04:36:57;-3.30;99.90
42095;DHT22;27753;55.724;37.612;2022-12-18T04:39:24;-3.30;99.90
42095;DHT22;27753;55.724;37.612;2022-12-18T04:41:50;-3.40;99.90
42095;DHT22;27753;55.724;37.612;2022-12-18T04:44:15;-3.40;99.90
42095;DHT22;27753;55.724;37.612;2022-12-18T04:46:41;-3.40;99.90
42095;DHT22;27753;55.724;37.612;2022-12-18T04:49:08;-3.40;99.90
42095;DHT22;27753;55.724;37.612;2022-12-18T04:51:36;-3.40;99.90
42095;DHT22;27753;55.724;37.612;2022-12-18T04:54:03;-3.40;99.90
42095;DHT22;27753;55.724;37.612;2022-12-18T04:56:31;-3.50;99.90
42095;DHT22;27753;55.724;37.612;2022-12-18T04:58:57;-3.50;99.90
42095;DHT22;27753;55.724;37.612;2022-12-18T05:01:23;-3.50;99.90
42095;DHT22;27753;55.724;37.612;2022-12-18T05:03:51;-3.40;99.90
42095;DHT22;27753;55.724;37.612;2022-12-18T05:06:17;-3.40;99.90
42095;DHT22;27753;55.724;37.612;2022-12-18T05:08:43;-3.50;99.90
42095;DHT22;27753;55.724;37.612;2022-12-18T05:11:11;-3.50;99.90
42095;DHT22;27753;55.724;37.612;2022-12-18T05:13:38;-3.50;99.90
42095;DHT22;27753;55.724;37.612;2022-12-18T05:16:04;-3.50;99.90
42095;DHT22;27753;55.724;37.612;2022-12-18T05:18:31;-3.50;99.90
42095;DHT22;27753;55.724;37.612;2022-12-18T05:20:57;-3.50;99.90
42095;DHT22;27753;55.724;37.612;2022-12-18T05:23:24;-3.40;99.90
42095;DHT22;27753;55.724;37.612;2022-12-18T05:25:57;-3.50;99.90
42095;DHT22;27753;55.724;37.612;2022-12-18T05:28:25;-3.40;99.90
42095;DHT22;27753;55.724;37.612;2022-12-18T05:30:51;-3.40;99.90
42095;DHT22;27753;55.724;37.612;2022-12-18T05:33:18;-3.40;99.90
42095;DHT22;27753;55.724;37.612;2022-12-18T05:35:50;-3.50;99.90
42095;DHT22;27753;55.724;37.612;2022-12-18T05:38:16;-3.50;99.90
42095;DHT22;27753;55.724;37.612;2022-12-18T05:40:42;-3.50;99.90
42095;DHT22;27753;55.724;37.612;2022-12-18T05:43:09;-3.50;99.90
42095;DHT22;27753;55.724;37.612;2022-12-18T05:45:37;-3.50;99.90
42095;DHT22;27753;55.724;37.612;2022-12-18T05:48:04;-3.50;99.90
42095;DHT22;27753;55.724;37.612;2022-12-18T05:50:30;-3.40;99.90
42095;DHT22;27753;55.724;37.612;2022-12-18T05:52:58;-3.50;99.90
42095;DHT22;27753;55.724;37.612;2022-12-18T05:55:24;-3.50;99.90
42095;DHT22;27753;55.724;37.612;2022-12-18T05:57:51;-3.50;99.90
42095;DHT22;27753;55.724;37.612;2022-12-18T06:00:17;-3.50;99.90
42095;DHT22;27753;55.724;37.612;2022-12-18T06:02:46;-3.50;99.90
42095;DHT22;27753;55.724;37.612;2022-12-18T06:05:12;-3.50;99.90
42095;DHT22;27753;55.724;37.612;2022-12-18T06:07:38;-3.50;99.90
42095;DHT22;27753;55.724;37.612;2022-12-18T06:10:04;-3.50;99.90
42095;DHT22;27753;55.724;37.612;2022-12-18T06:12:30;-3.50;99.90
42095;DHT22;27753;55.724;37.612;2022-12-18T06:14:56;-3.50;99.90
42095;DHT22;27753;55.724;37.612;2022-12-18T06:17:22;-3.50;99.90
42095;DHT22;27753;55.724;37.612;2022-12-18T06:19:48;-3.50;99.90
42095;DHT22;27753;55.724;37.612;2022-12-18T06:22:14;-3.50;99.90
42095;DHT22;27753;55.724;37.612;2022-12-18T06:24:40;-3.50;99.90
42095;DHT22;27753;55.724;37.612;2022-12-18T06:27:05;-3.60;99.90
42095;DHT22;27753;55.724;37.612;2022-12-18T06:29:31;-3.60;99.90
42095;DHT22;27753;55.724;37.612;2022-12-18T06:31:57;-3.60;99.90
42095;DHT22;27753;55.724;37.612;2022-12-18T06:34:23;-3.60;99.90
42095;DHT22;27753;55.724;37.612;2022-12-18T06:36:49;-3.50;99.90
42095;DHT22;27753;55.724;37.612;2022-12-18T06:39:15;-3.50;99.90
42095;DHT22;27753;55.724;37.612;2022-12-18T06:41:40;-3.50;99.90
42095;DHT22;27753;55.724;37.612;2022-12-18T06:44:06;-3.50;99.90
42095;DHT22;27753;55.724;37.612;2022-12-18T06:46:32;-3.50;99.90
42095;DHT22;27753;55.724;37.612;2022-12-18T06:48:58;-3.50;99.90
42095;DHT22;27753;55.724;37.612;2022-12-18T06:51:24;-3.50;99.90
42095;DHT22;27753;55.724;37.612;2022-12-18T06:53:50;-3.50;99.90
42095;DHT22;27753;55.724;37.612;2022-12-18T06:56:16;-3.50;99.90
42095;DHT22;27753;55.724;37.612;2022-12-18T06:58:42;-3.50;99.90
42095;DHT22;27753;55.724;37.612;2022-12-18T07:01:10;-3.50;99.90
42095;DHT22;27753;55.724;37.612;2022-12-18T07:03:38;-3.50;99.90
42095;DHT22;27753;55.724;37.612;2022-12-18T07:06:04;-3.50;99.90
42095;DHT22;27753;55.724;37.612;2022-12-18T07:08:31;-3.50;99.90
42095;DHT22;27753;55.724;37.612;2022-12-18T07:10:57;-3.40;99.90
42095;DHT22;27753;55.724;37.612;2022-12-18T07:13:23;-3.40;99.90
42095;DHT22;27753;55.724;37.612;2022-12-18T07:15:49;-3.40;99.90
42095;DHT22;27753;55.724;37.612;2022-12-18T07:18:15;-3.50;99.90
42095;DHT22;27753;55.724;37.612;2022-12-18T07:20:41;-3.40;99.90
42095;DHT22;27753;55.724;37.612;2022-12-18T07:23:06;-3.40;99.90
42095;DHT22;27753;55.724;37.612;2022-12-18T07:25:36;-3.50;99.90
42095;DHT22;27753;55.724;37.612;2022-12-18T07:28:02;-3.40;99.90
42095;DHT22;27753;55.724;37.612;2022-12-18T07:30:29;-3.40;99.90
42095;DHT22;27753;55.724;37.612;2022-12-18T07:32:54;-3.40;99.90
42095;DHT22;27753;55.724;37.612;2022-12-18T07:35:20;-3.40;99.90
42095;DHT22;27753;55.724;37.612;2022-12-18T07:37:46;-3.40;99.90
42095;DHT22;27753;55.724;37.612;2022-12-18T07:40:12;-3.40;99.90
42095;DHT22;27753;55.724;37.612;2022-12-18T07:42:40;-3.40;99.80
42095;DHT22;27753;55.724;37.612;2022-12-18T07:45:06;-3.40;99.80
42095;DHT22;27753;55.724;37.612;2022-12-18T07:47:35;-3.40;99.70
42095;DHT22;27753;55.724;37.612;2022-12-18T07:50:02;-3.40;99.70
42095;DHT22;27753;55.724;37.612;2022-12-18T07:52:28;-3.40;99.60
42095;DHT22;27753;55.724;37.612;2022-12-18T07:54:57;-3.40;99.20
42095;DHT22;27753;55.724;37.612;2022-12-18T07:57:24;-3.40;99.20
42095;DHT22;27753;55.724;37.612;2022-12-18T07:59:49;-3.40;99.40
42095;DHT22;27753;55.724;37.612;2022-12-18T08:02:15;-3.40;99.50
42095;DHT22;27753;55.724;37.612;2022-12-18T08:04:41;-3.30;99.40
42095;DHT22;27753;55.724;37.612;2022-12-18T08:07:07;-3.30;99.60
42095;DHT22;27753;55.724;37.612;2022-12-18T08:09:33;-3.30;99.40
42095;DHT22;27753;55.724;37.612;2022-12-18T08:11:59;-3.30;99.30
42095;DHT22;27753;55.724;37.612;2022-12-18T08:14:24;-3.20;99.40
42095;DHT22;27753;55.724;37.612;2022-12-18T08:16:50;-3.20;99.20
42095;DHT22;27753;55.724;37.612;2022-12-18T08:19:16;-3.30;99.40
42095;DHT22;27753;55.724;37.612;2022-12-18T08:21:42;-3.30;99.40
42095;DHT22;27753;55.724;37.612;2022-12-18T08:24:09;-3.30;99.50
42095;DHT22;27753;55.724;37.612;2022-12-18T08:26:34;-3.30;99.20
42095;DHT22;27753;55.724;37.612;2022-12-18T08:29:03;-3.30;99.10
42095;DHT22;27753;55.724;37.612;2022-12-18T08:31:30;-3.30;99.30
42095;DHT22;27753;55.724;37.612;2022-12-18T08:33:56;-3.30;99.60
42095;DHT22;27753;55.724;37.612;2022-12-18T08:36:23;-3.20;99.70
42095;DHT22;27753;55.724;37.612;2022-12-18T08:38:49;-3.20;99.70
42095;DHT22;27753;55.724;37.612;2022-12-18T08:41:17;-3.20;99.70
42095;DHT22;27753;55.724;37.612;2022-12-18T08:43:43;-3.20;99.30
42095;DHT22;27753;55.724;37.612;2022-12-18T08:46:41;-3.20;99.40
42095;DHT22;27753;55.724;37.612;2022-12-18T08:49:09;-3.20;99.40
42095;DHT22;27753;55.724;37.612;2022-12-18T08:51:35;-3.20;99.50
42095;DHT22;27753;55.724;37.612;2022-12-18T08:54:02;-3.20;99.50
42095;DHT22;27753;55.724;37.612;2022-12-18T08:56:28;-3.20;99.80
42095;DHT22;27753;55.724;37.612;2022-12-18T08:58:55;-3.10;99.90
42095;DHT22;27753;55.724;37.612;2022-12-18T09:01:22;-3.10;99.90
42095;DHT22;27753;55.724;37.612;2022-12-18T09:03:50;-3.10;99.90
42095;DHT22;27753;55.724;37.612;2022-12-18T09:06:20;-3.10;99.60
42095;DHT22;27753;55.724;37.612;2022-12-18T09:08:49;-3.00;99.60
42095;DHT22;27753;55.724;37.612;2022-12-18T09:11:24;-3.10;99.60
42095;DHT22;27753;55.724;37.612;2022-12-18T09:13:51;-3.00;99.70
42095;DHT22;27753;55.724;37.612;2022-12-18T09:16:17;-3.00;99.90
42095;DHT22;27753;55.724;37.612;2022-12-18T09:18:43;-3.00;99.90
42095;DHT22;27753;55.724;37.612;2022-12-18T09:21:14;-2.90;99.70
42095;DHT22;27753;55.724;37.612;2022-12-18T09:23:41;-3.00;99.60
42095;DHT22;27753;55.724;37.612;2022-12-18T09:26:07;-2.90;99.70
42095;DHT22;27753;55.724;37.612;2022-12-18T09:28:33;-3.00;99.80
42095;DHT22;27753;55.724;37.612;2022-12-18T09:31:02;-2.90;99.90
42095;DHT22;27753;55.724;37.612;2022-12-18T09:33:29;-2.90;99.90
42095;DHT22;27753;55.724;37.612;2022-12-18T09:35:54;-2.90;99.80
42095;DHT22;27753;55.724;37.612;2022-12-18T09:38:20;-2.90;99.60
42095;DHT22;27753;55.724;37.612;2022-12-18T09:40:59;-2.90;99.80
42095;DHT22;27753;55.724;37.612;2022-12-18T09:43:45;-2.80;99.90
42095;DHT22;27753;55.724;37.612;2022-12-18T09:46:17;-2.80;99.80
42095;DHT22;27753;55.724;37.612;2022-12-18T09:48:48;-2.90;99.70
42095;DHT22;27753;55.724;37.612;2022-12-18T09:51:20;-2.80;99.90
42095;DHT22;27753;55.724;37.612;2022-12-18T09:53:53;-2.80;99.90
42095;DHT22;27753;55.724;37.612;2022-12-18T09:56:22;-2.90;99.60
42095;DHT22;27753;55.724;37.612;2022-12-18T09:58:59;-2.90;99.90
42095;DHT22;27753;55.724;37.612;2022-12-18T10:01:29;-2.90;99.90
42095;DHT22;27753;55.724;37.612;2022-12-18T10:03:59;-2.80;99.90
42095;DHT22;27753;55.724;37.612;2022-12-18T10:12:04;-2.80;99.90
42095;DHT22;27753;55.724;37.612;2022-12-18T10:14:53;-2.80;99.90
42095;DHT22;27753;55.724;37.612;2022-12-18T10:17:37;-2.70;99.90
42095;DHT22;27753;55.724;37.612;2022-12-18T10:23:30;-2.70;99.90
42095;DHT22;27753;55.724;37.612;2022-12-18T10:26:03;-2.70;99.90
42095;DHT22;27753;55.724;37.612;2022-12-18T10:28:35;-2.70;99.90
42095;DHT22;27753;55.724;37.612;2022-12-18T10:31:01;-2.70;99.90
42095;DHT22;27753;55.724;37.612;2022-12-18T10:33:34;-2.70;99.90
42095;DHT22;27753;55.724;37.612;2022-12-18T10:36:06;-2.70;99.90
42095;DHT22;27753;55.724;37.612;2022-12-18T10:38:51;-2.70;99.90
42095;DHT22;27753;55.724;37.612;2022-12-18T10:43:50;-2.70;99.90
42095;DHT22;27753;55.724;37.612;2022-12-18T10:46:37;-2.60;99.90
42095;DHT22;27753;55.724;37.612;2022-12-18T10:49:04;-2.60;99.90
42095;DHT22;27753;55.724;37.612;2022-12-18T10:51:35;-2.60;99.90
42095;DHT22;27753;55.724;37.612;2022-12-18T10:54:17;-2.50;99.90
42095;DHT22;27753;55.724;37.612;2022-12-18T10:56:43;-2.50;99.90
42095;DHT22;27753;55.724;37.612;2022-12-18T10:59:12;-2.50;99.60
42095;DHT22;27753;55.724;37.612;2022-12-18T11:04:30;-2.50;99.70
42095;DHT22;27753;55.724;37.612;2022-12-18T11:06:59;-2.50;99.70
42095;DHT22;27753;55.724;37.612;2022-12-18T11:09:33;-2.50;99.60
42095;DHT22;27753;55.724;37.612;2022-12-18T11:12:02;-2.50;99.20
42095;DHT22;27753;55.724;37.612;2022-12-18T11:14:46;-2.50;99.30
42095;DHT22;27753;55.724;37.612;2022-12-18T11:17:20;-2.40;99.30
42095;DHT22;27753;55.724;37.612;2022-12-18T11:19:53;-2.50;99.30
42095;DHT22;27753;55.724;37.612;2022-12-18T11:24:57;-2.50;99.40
42095;DHT22;27753;55.724;37.612;2022-12-18T11:27:24;-2.50;99.40
42095;DHT22;27753;55.724;37.612;2022-12-18T11:29:51;-2.50;99.30
42095;DHT22;27753;55.724;37.612;2022-12-18T11:32:35;-2.50;99.60
42095;DHT22;27753;55.724;37.612;2022-12-18T11:35:04;-2.50;99.90
42095;DHT22;27753;55.724;37.612;2022-12-18T11:37:35;-2.50;99.90
42095;DHT22;27753;55.724;37.612;2022-12-18T11:40:16;-2.50;99.90
42095;DHT22;27753;55.724;37.612;2022-12-18T11:42:50;-2.50;99.80
42095;DHT22;27753;55.724;37.612;2022-12-18T11:45:24;-2.60;99.70
42095;DHT22;27753;55.724;37.612;2022-12-18T11:48:17;-2.60;99.90
42095;DHT22;27753;55.724;37.612;2022-12-18T11:50:51;-2.60;99.90
42095;DHT22;27753;55.724;37.612;2022-12-18T11:53:37;-2.60;99.90
42095;DHT22;27753;55.724;37.612;2022-12-18T11:56:32;-2.50;99.90
42095;DHT22;27753;55.724;37.612;2022-12-18T12:13:38;-2.70;99.40
42095;DHT22;27753;55.724;37.612;2022-12-18T12:16:17;-2.70;99.40
42095;DHT22;27753;55.724;37.612;2022-12-18T12:18:51;-2.70;99.40
42095;DHT22;27753;55.724;37.612;2022-12-18T12:21:42;-2.60;99.50
42095;DHT22;27753;55.724;37.612;2022-12-18T12:27:15;-2.60;99.30
42095;DHT22;27753;55.724;37.612;2022-12-18T12:38:06;-2.60;99.10
42095;DHT22;27753;55.724;37.612;2022-12-18T12:40:37;-2.60;98.90
42095;DHT22;27753;55.724;37.612;2022-12-18T12:43:38;-2.60;98.70
42095;DHT22;27753;55.724;37.612;2022-12-18T12:46:14;-2.60;98.70
42095;DHT22;27753;55.724;37.612;2022-12-18T12:48:54;-2.50;98.90
42095;DHT22;27753;55.724;37.612;2022-12-18T12:53:48;-2.50;99.20
42095;DHT22;27753;55.724;37.612;2022-12-18T12:56:16;-2.60;99.70
42095;DHT22;27753;55.724;37.612;2022-12-18T13:01:57;-2.60;99.90
42095;DHT22;27753;55.724;37.612;2022-12-18T13:04:36;-2.60;99.90
42095;DHT22;27753;55.724;37.612;2022-12-18T13:07:14;-2.50;99.60
42095;DHT22;27753;55.724;37.612;2022-12-18T13:13:05;-2.50;99.50
42095;DHT22;27753;55.724;37.612;2022-12-18T13:16:04;-2.50;99.60
42095;DHT22;27753;55.724;37.612;2022-12-18T13:18:30;-2.60;99.60
42095;DHT22;27753;55.724;37.612;2022-12-18T13:31:14;-2.60;99.70
42095;DHT22;27753;55.724;37.612;2022-12-18T13:33:44;-2.60;99.90
42095;DHT22;27753;55.724;37.612;2022-12-18T13:38:42;-2.60;99.90
42095;DHT22;27753;55.724;37.612;2022-12-18T13:41:22;-2.60;99.80
42095;DHT22;27753;55.724;37.612;2022-12-18T13:43:51;-2.60;99.70
42095;DHT22;27753;55.724;37.612;2022-12-18T13:51:27;-2.60;99.50
42095;DHT22;27753;55.724;37.612;2022-12-18T13:53:55;-2.50;99.70
42095;DHT22;27753;55.724;37.612;2022-12-18T13:56:25;-2.50;99.70
42095;DHT22;27753;55.724;37.612;2022-12-18T13:59:17;-2.50;99.30
42095;DHT22;27753;55.724;37.612;2022-12-18T14:01:59;-2.60;99.70
42095;DHT22;27753;55.724;37.612;2022-12-18T14:04:31;-2.50;99.90
42095;DHT22;27753;55.724;37.612;2022-12-18T14:07:22;-2.50;99.90
42095;DHT22;27753;55.724;37.612;2022-12-18T14:09:54;-2.50;99.80
42095;DHT22;27753;55.724;37.612;2022-12-18T14:20:20;-2.50;99.90
42095;DHT22;27753;55.724;37.612;2022-12-18T14:22:47;-2.50;99.70
42095;DHT22;27753;55.724;37.612;2022-12-18T14:25:18;-2.60;99.40
42095;DHT22;27753;55.724;37.612;2022-12-18T14:27:48;-2.60;99.70
42095;DHT22;27753;55.724;37.612;2022-12-18T14:30:25;-2.60;99.80
42095;DHT22;27753;55.724;37.612;2022-12-18T14:33:17;-2.60;99.30
42095;DHT22;27753;55.724;37.612;2022-12-18T14:36:02;-2.70;99.10
42095;DHT22;27753;55.724;37.612;2022-12-18T14:38:32;-2.60;99.30
42095;DHT22;27753;55.724;37.612;2022-12-18T14:43:27;-2.70;98.80
42095;DHT22;27753;55.724;37.612;2022-12-18T14:45:54;-2.60;98.90
42095;DHT22;27753;55.724;37.612;2022-12-18T14:50:59;-2.70;98.40
42095;DHT22;27753;55.724;37.612;2022-12-18T14:53:37;-2.70;98.20
42095;DHT22;27753;55.724;37.612;2022-12-18T14:56:15;-2.70;98.40
42095;DHT22;27753;55.724;37.612;2022-12-18T14:59:15;-2.70;98.00
42095;DHT22;27753;55.724;37.612;2022-12-18T15:02:04;-2.80;98.50
42095;DHT22;27753;55.724;37.612;2022-12-18T15:04:36;-2.80;98.40
42095;DHT22;27753;55.724;37.612;2022-12-18T15:07:17;-2.90;98.70
42095;DHT22;27753;55.724;37.612;2022-12-18T15:10:02;-2.80;98.10
42095;DHT22;27753;55.724;37.612;2022-12-18T15:12:36;-2.80;98.50
42095;DHT22;27753;55.724;37.612;2022-12-18T15:15:03;-2.80;98.50
42095;DHT22;27753;55.724;37.612;2022-12-18T15:17:29;-2.80;98.30
42095;DHT22;27753;55.724;37.612;2022-12-18T15:20:08;-2.80;98.50
42095;DHT22;27753;55.724;37.612;2022-12-18T15:22:35;-2.80;98.00
42095;DHT22;27753;55.724;37.612;2022-12-18T15:25:02;-2.80;97.50
42095;DHT22;27753;55.724;37.612;2022-12-18T15:27:38;-2.90;97.80
42095;DHT22;27753;55.724;37.612;2022-12-18T15:30:16;-3.00;97.90
42095;DHT22;27753;55.724;37.612;2022-12-18T15:32:46;-3.00;97.90
42095;DHT22;27753;55.724;37.612;2022-12-18T15:35:21;-3.00;97.60
42095;DHT22;27753;55.724;37.612;2022-12-18T15:37:47;-3.00;97.60
42095;DHT22;27753;55.724;37.612;2022-12-18T15:40:18;-3.00;97.80
42095;DHT22;27753;55.724;37.612;2022-12-18T15:42:44;-3.00;97.60
42095;DHT22;27753;55.724;37.612;2022-12-18T15:45:29;-3.00;97.50
42095;DHT22;27753;55.724;37.612;2022-12-18T15:47:55;-3.00;97.30
42095;DHT22;27753;55.724;37.612;2022-12-18T15:50:22;-3.10;97.50
42095;DHT22;27753;55.724;37.612;2022-12-18T15:52:50;-3.10;97.40
42095;DHT22;27753;55.724;37.612;2022-12-18T15:55:22;-3.10;98.00
42095;DHT22;27753;55.724;37.612;2022-12-18T15:58:08;-3.10;97.80
42095;DHT22;27753;55.724;37.612;2022-12-18T16:00:34;-3.10;97.50
42095;DHT22;27753;55.724;37.612;2022-12-18T16:03:02;-3.10;97.30
42095;DHT22;27753;55.724;37.612;2022-12-18T16:05:29;-3.20;97.20
42095;DHT22;27753;55.724;37.612;2022-12-18T16:07:55;-3.20;97.70
42095;DHT22;27753;55.724;37.612;2022-12-18T16:10:21;-3.20;97.80
42095;DHT22;27753;55.724;37.612;2022-12-18T16:12:47;-3.20;96.90
42095;DHT22;27753;55.724;37.612;2022-12-18T16:15:14;-3.30;96.60
42095;DHT22;27753;55.724;37.612;2022-12-18T16:17:44;-3.40;97.10
42095;DHT22;27753;55.724;37.612;2022-12-18T16:20:14;-3.40;97.50
42095;DHT22;27753;55.724;37.612;2022-12-18T16:22:41;-3.40;97.20
42095;DHT22;27753;55.724;37.612;2022-12-18T16:25:17;-3.40;96.80
42095;DHT22;27753;55.724;37.612;2022-12-18T16:27:43;-3.50;96.40
42095;DHT22;27753;55.724;37.612;2022-12-18T16:30:17;-3.50;97.30
42095;DHT22;27753;55.724;37.612;2022-12-18T16:32:43;-3.50;96.90
42095;DHT22;27753;55.724;37.612;2022-12-18T16:35:14;-3.50;96.70
42095;DHT22;27753;55.724;37.612;2022-12-18T16:37:41;-3.50;96.70
42095;DHT22;27753;55.724;37.612;2022-12-18T16:40:09;-3.50;96.90
42095;DHT22;27753;55.724;37.612;2022-12-18T16:42:37;-3.50;96.80
42095;DHT22;27753;55.724;37.612;2022-12-18T16:45:05;-3.50;96.30
42095;DHT22;27753;55.724;37.612;2022-12-18T16:47:32;-3.50;96.40
42095;DHT22;27753;55.724;37.612;2022-12-18T16:49:58;-3.50;96.40
42095;DHT22;27753;55.724;37.612;2022-12-18T16:52:24;-3.60;96.30
42095;DHT22;27753;55.724;37.612;2022-12-18T16:54:49;-3.60;96.50
42095;DHT22;27753;55.724;37.612;2022-12-18T16:57:17;-3.60;96.00
42095;DHT22;27753;55.724;37.612;2022-12-18T16:59:44;-3.70;95.60
42095;DHT22;27753;55.724;37.612;2022-12-18T17:02:27;-3.80;95.50
42095;DHT22;27753;55.724;37.612;2022-12-18T17:04:54;-3.80;95.90
42095;DHT22;27753;55.724;37.612;2022-12-18T17:07:24;-3.80;95.60
42095;DHT22;27753;55.724;37.612;2022-12-18T17:09:50;-3.90;95.20
42095;DHT22;27753;55.724;37.612;2022-12-18T17:12:19;-3.90;95.70
42095;DHT22;27753;55.724;37.612;2022-12-18T17:14:47;-3.90;95.60
42095;DHT22;27753;55.724;37.612;2022-12-18T17:17:14;-3.90;95.90
42095;DHT22;27753;55.724;37.612;2022-12-18T17:19:40;-4.00;95.80
42095;DHT22;27753;55.724;37.612;2022-12-18T17:22:06;-4.00;95.90
42095;DHT22;27753;55.724;37.612;2022-12-18T17:24:32;-4.10;95.50
42095;DHT22;27753;55.724;37.612;2022-12-18T17:26:58;-4.10;95.30
42095;DHT22;27753;55.724;37.612;2022-12-18T17:29:24;-4.20;95.10